createdAt,value
2019-06-20T04:02:11.315Z,22.00
2019-06-20T04:04:46.279Z,22.10
2019-06-20T04:07:24.122Z,22.20
2019-06-20T04:33:57.641Z,22.90
2019-06-20T04:42:44.557Z,23.00
2019-06-20T04:48:41.309Z,23.00
2019-06-20T04:55:26.147Z,23.00
2019-06-20T05:08:23.717Z,23.10
2019-06-20T05:34:38.297Z,23.40
2019-06-20T05:45:00.971Z,23.70
2019-06-20T05:46:22.190Z,23.70
2019-06-20T05:48:52.689Z,23.70
2019-06-20T05:51:21.317Z,23.80
2019-06-20T05:53:49.998Z,23.80
2019-06-20T05:56:22.729Z,23.80
2019-06-20T05:59:02.681Z,23.80
2019-06-20T06:01:38.539Z,23.80
2019-06-20T06:04:29.953Z,23.80
2019-06-20T06:20:11.418Z,24.00
2019-06-20T06:23:01.465Z,24.10
2019-06-20T06:25:39.817Z,24.20
2019-06-20T06:28:23.478Z,24.30
2019-06-20T06:37:30.655Z,24.50
2019-06-20T06:43:41.870Z,24.60
2019-06-20T06:49:43.607Z,24.70
2019-06-20T06:55:43.097Z,24.70
2019-06-20T07:01:44.020Z,24.80
2019-06-20T08:54:41.403Z,27.50
2019-06-20T09:00:13.058Z,27.60
2019-06-20T09:03:00.428Z,27.60
2019-06-20T09:12:53.618Z,27.70
2019-06-20T09:31:54.014Z,27.70
2019-06-20T09:37:51.959Z,27.90
2019-06-20T09:44:05.849Z,28.10
2019-06-20T09:50:15.253Z,28.20
2019-06-20T09:56:12.762Z,28.40
2019-06-20T10:02:10.304Z,28.60
2019-06-20T10:08:06.988Z,28.80
2019-06-20T10:14:04.079Z,28.80
2019-06-20T10:20:02.468Z,28.90
2019-06-20T10:25:59.864Z,29.10
2019-06-20T10:31:46.308Z,29.30
2019-06-20T10:37:48.492Z,29.50
2019-06-20T10:43:45.818Z,29.70
2019-06-20T10:49:47.719Z,29.80
2019-06-20T10:55:44.887Z,29.80
2019-06-20T10:58:24.666Z,29.80
2019-06-20T11:01:03.390Z,29.90
2019-06-20T11:07:00.037Z,30.00
2019-06-20T13:24:41.057Z,31.60
2019-06-20T13:27:16.869Z,31.30
2019-06-20T13:30:16.989Z,31.10
2019-06-20T13:32:58.359Z,31.10
2019-06-20T13:35:30.067Z,31.10
2019-06-20T13:38:01.949Z,31.10
2019-06-20T13:41:05.088Z,31.30
2019-06-20T13:43:11.809Z,31.60
2019-06-20T13:45:55.861Z,32.20
2019-06-20T13:48:30.272Z,32.80
2019-06-20T13:51:24.160Z,33.50
2019-06-20T13:54:35.521Z,33.80
2019-06-20T13:57:12.702Z,34.10
2019-06-20T13:59:54.568Z,34.30
2019-06-20T14:02:32.849Z,34.50
2019-06-20T14:05:29.578Z,34.60
2019-06-20T14:08:13.643Z,34.70
2019-06-20T14:10:44.180Z,34.50
2019-06-20T14:13:19.220Z,34.00
2019-06-20T14:15:58.109Z,33.40
2019-06-20T14:18:46.749Z,32.80
2019-06-20T14:21:12.151Z,32.30
2019-06-20T14:23:50.524Z,32.10
2019-06-20T14:26:19.440Z,32.00
2019-06-20T14:28:48.312Z,31.90
2019-06-20T14:31:23.421Z,31.90
2019-06-20T14:33:53.240Z,31.80
2019-06-20T14:36:48.172Z,31.60
2019-06-20T14:39:25.662Z,31.40
2019-06-20T14:41:55.254Z,31.20
2019-06-20T14:44:30.305Z,31.00
2019-06-20T14:47:02.047Z,31.00
2019-06-20T14:49:31.857Z,31.00
2019-06-20T14:52:35.100Z,30.80
2019-06-20T14:54:51.721Z,30.70
2019-06-20T15:13:40.842Z,30.10
2019-06-20T15:19:54.355Z,30.10
2019-06-20T15:35:32.477Z,30.00
2019-06-20T15:37:59.388Z,29.80
2019-06-20T15:40:27.812Z,29.70
2019-06-20T15:42:56.954Z,29.60
2019-06-20T15:45:26.465Z,29.50
2019-06-20T15:47:55.011Z,29.40
2019-06-20T15:50:23.506Z,29.40
2019-06-20T15:52:52.077Z,29.30
2019-06-20T15:55:20.614Z,29.30
2019-06-20T15:57:49.123Z,29.10
2019-06-20T16:00:19.585Z,29.00
2019-06-20T16:02:48.113Z,28.90
2019-06-20T16:05:16.681Z,28.80
2019-06-20T16:07:45.239Z,28.70
2019-06-20T16:10:14.843Z,28.60
2019-06-20T16:12:44.447Z,28.60
2019-06-20T16:15:19.765Z,28.60
2019-06-20T16:17:49.334Z,28.50
2019-06-20T16:20:17.921Z,28.50
2019-06-20T16:22:46.609Z,28.50
2019-06-20T16:25:15.212Z,28.50
2019-06-20T16:27:43.799Z,28.50
2019-06-20T16:30:12.414Z,28.40
2019-06-20T16:32:41.070Z,28.50
2019-06-20T16:35:09.576Z,28.50
2019-06-20T16:37:38.242Z,28.50
2019-06-20T16:40:11.569Z,28.40
2019-06-20T16:42:40.277Z,28.40
2019-06-20T16:45:09.352Z,28.40
2019-06-20T16:47:38.134Z,28.30
2019-06-20T16:50:07.367Z,28.30
2019-06-20T16:52:35.834Z,28.30
2019-06-20T16:55:07.389Z,28.30
2019-06-20T16:57:36.134Z,28.20
2019-06-20T17:00:06.944Z,28.20
2019-06-20T17:02:35.702Z,28.20
2019-06-20T17:05:07.582Z,28.10
2019-06-20T17:07:36.338Z,27.90
2019-06-20T17:10:08.648Z,27.70
2019-06-20T17:12:37.156Z,27.50
2019-06-20T17:15:06.182Z,27.30
2019-06-20T17:17:34.674Z,27.10
2019-06-20T17:20:11.382Z,26.90
2019-06-20T17:22:42.764Z,26.50
2019-06-20T17:25:11.457Z,26.20
2019-06-20T17:27:42.157Z,26.10
2019-06-20T17:30:11.719Z,25.80
2019-06-20T17:32:40.346Z,25.10
2019-06-20T17:38:36.934Z,23.90
2019-06-20T18:01:38.213Z,22.60
2019-06-20T18:18:16.759Z,22.20
2019-06-20T18:20:44.270Z,22.30
2019-06-20T18:23:21.823Z,22.40
2019-06-20T18:25:59.075Z,22.40
2019-06-20T18:28:36.725Z,22.50
2019-06-20T18:34:02.861Z,22.70
2019-06-20T18:37:01.821Z,22.70
2019-06-20T18:39:40.423Z,22.80
2019-06-20T18:42:09.389Z,22.80
2019-06-20T18:44:40.676Z,22.90
2019-06-20T18:47:17.257Z,23.00
2019-06-20T18:49:55.568Z,23.00
2019-06-20T18:52:55.151Z,23.00
2019-06-20T18:55:10.580Z,23.00
2019-06-20T18:57:39.241Z,22.90
2019-06-20T19:00:10.143Z,22.90
2019-06-20T19:02:38.870Z,23.00
2019-06-20T19:05:08.669Z,23.00
2019-06-20T19:07:38.402Z,23.10
2019-06-20T19:10:12.925Z,23.10
2019-06-20T19:12:44.398Z,23.20
2019-06-20T19:15:14.080Z,23.20
2019-06-20T19:17:42.838Z,23.20
2019-06-20T19:20:11.484Z,23.10
2019-06-20T19:22:40.161Z,23.10
2019-06-20T19:25:10.575Z,23.10
2019-06-20T19:27:46.217Z,23.10
2019-06-20T19:30:15.026Z,23.10
2019-06-20T19:32:55.576Z,23.10
2019-06-20T19:35:24.264Z,23.10
2019-06-20T19:37:55.615Z,23.00
2019-06-20T19:40:27.568Z,22.90
2019-06-20T19:42:56.334Z,22.80
2019-06-20T19:45:24.830Z,22.90
2019-06-20T19:51:22.471Z,22.80
2019-06-20T19:57:20.022Z,22.90
2019-06-20T20:03:17.583Z,22.90
2019-06-20T20:09:27.015Z,22.90
2019-06-20T20:15:38.050Z,22.90
2019-06-20T20:21:47.715Z,22.80
2019-06-20T20:27:57.343Z,22.70
2019-06-20T20:33:54.031Z,22.60
2019-06-20T20:39:39.325Z,22.60
2019-06-20T20:45:48.987Z,22.50
2019-06-20T20:51:58.379Z,22.50
2019-06-20T20:58:07.682Z,22.40
2019-06-20T21:04:04.779Z,22.40
2019-06-20T21:10:02.480Z,22.40
2019-06-20T21:15:59.163Z,22.40
2019-06-20T21:21:56.717Z,22.40
2019-06-20T21:27:57.014Z,22.40
2019-06-20T21:33:30.512Z,22.40
2019-06-20T21:39:14.889Z,22.40
2019-06-20T21:45:12.169Z,22.30
2019-06-20T21:51:09.595Z,22.30
2019-06-20T21:57:11.359Z,22.30
2019-06-20T22:03:10.830Z,22.30
2019-06-20T22:09:10.138Z,22.20
2019-06-20T22:15:08.144Z,22.20
2019-06-20T22:21:07.014Z,22.20
2019-06-20T22:23:35.728Z,22.10
2019-06-20T22:26:04.253Z,22.10
2019-06-20T22:28:39.130Z,22.10
2019-06-20T22:31:03.359Z,22.10
2019-06-20T22:33:33.497Z,22.10
2019-06-20T22:36:02.155Z,22.10
2019-06-20T22:38:31.707Z,22.10
2019-06-20T22:41:00.249Z,22.00
2019-06-20T22:43:28.839Z,22.00
2019-06-20T22:46:05.551Z,22.00
2019-06-20T22:48:34.177Z,22.00
2019-06-20T22:51:02.759Z,22.00
2019-06-20T22:53:31.350Z,22.00
2019-06-20T22:56:00.524Z,22.00
2019-06-20T22:58:29.039Z,22.00
2019-06-20T23:00:58.582Z,22.00
2019-06-20T23:03:27.151Z,22.00
2019-06-20T23:05:55.633Z,22.10
2019-06-20T23:08:24.206Z,22.10
2019-06-20T23:10:52.754Z,22.00
2019-06-20T23:13:21.430Z,22.00
2019-06-20T23:15:49.844Z,22.00
2019-06-20T23:18:18.525Z,22.00
2019-06-20T23:21:03.684Z,22.00
2019-06-20T23:23:17.224Z,21.90
2019-06-20T23:25:47.260Z,21.90
2019-06-20T23:28:16.804Z,21.90
2019-06-20T23:30:48.434Z,21.90
2019-06-20T23:33:17.974Z,21.90
2019-06-20T23:35:46.604Z,21.90
2019-06-20T23:38:15.227Z,21.80
2019-06-20T23:40:43.781Z,21.90
2019-06-20T23:43:12.267Z,21.80
2019-06-20T23:45:40.988Z,21.90
2019-06-20T23:48:09.511Z,21.90
2019-06-20T23:50:37.982Z,21.90
2019-06-20T23:53:18.692Z,21.90
2019-06-20T23:55:48.621Z,21.90
2019-06-20T23:58:17.170Z,21.90
